sensor_id;sensor_type;location;lat;lon;timestamp;P1;durP1;ratioP1;P2;durP2;ratioP2
1759;SDS011;877;46.266;20.062;2023-06-14T00:00:03;8.97;;;5.77;;
1759;SDS011;877;46.266;20.062;2023-06-14T00:02:35;7.70;;;5.67;;
1759;SDS011;877;46.266;20.062;2023-06-14T00:07:51;11.43;;;6.47;;
1759;SDS011;877;46.266;20.062;2023-06-14T00:10:21;7.77;;;5.77;;
1759;SDS011;877;46.266;20.062;2023-06-14T00:12:51;9.47;;;6.00;;
1759;SDS011;877;46.266;20.062;2023-06-14T00:15:24;9.30;;;6.13;;
1759;SDS011;877;46.266;20.062;2023-06-14T00:18:00;7.80;;;5.80;;
1759;SDS011;877;46.266;20.062;2023-06-14T00:20:28;9.97;;;6.47;;
1759;SDS011;877;46.266;20.062;2023-06-14T00:23:09;11.10;;;6.27;;
1759;SDS011;877;46.266;20.062;2023-06-14T00:25:43;9.80;;;6.07;;
1759;SDS011;877;46.266;20.062;2023-06-14T00:28:12;8.17;;;6.20;;
1759;SDS011;877;46.266;20.062;2023-06-14T00:30:44;9.70;;;6.23;;
1759;SDS011;877;46.266;20.062;2023-06-14T00:36:31;9.70;;;6.40;;
1759;SDS011;877;46.266;20.062;2023-06-14T00:38:59;9.83;;;5.93;;
1759;SDS011;877;46.266;20.062;2023-06-14T00:41:34;11.37;;;5.90;;
1759;SDS011;877;46.266;20.062;2023-06-14T00:44:07;10.47;;;6.27;;
1759;SDS011;877;46.266;20.062;2023-06-14T00:49:29;9.73;;;5.90;;
1759;SDS011;877;46.266;20.062;2023-06-14T00:52:01;9.47;;;5.43;;
1759;SDS011;877;46.266;20.062;2023-06-14T00:54:31;8.43;;;5.87;;
1759;SDS011;877;46.266;20.062;2023-06-14T00:57:03;12.03;;;7.10;;
1759;SDS011;877;46.266;20.062;2023-06-14T01:02:10;7.80;;;5.03;;
1759;SDS011;877;46.266;20.062;2023-06-14T01:04:53;10.87;;;6.23;;
1759;SDS011;877;46.266;20.062;2023-06-14T01:13:21;8.10;;;6.10;;
1759;SDS011;877;46.266;20.062;2023-06-14T01:16:03;9.90;;;7.20;;
1759;SDS011;877;46.266;20.062;2023-06-14T01:21:19;9.00;;;6.70;;
1759;SDS011;877;46.266;20.062;2023-06-14T01:32:11;14.07;;;7.63;;
1759;SDS011;877;46.266;20.062;2023-06-14T01:34:38;9.00;;;5.90;;
1759;SDS011;877;46.266;20.062;2023-06-14T01:39:43;13.53;;;5.93;;
1759;SDS011;877;46.266;20.062;2023-06-14T01:42:16;10.90;;;6.20;;
1759;SDS011;877;46.266;20.062;2023-06-14T01:50:15;10.73;;;6.13;;
1759;SDS011;877;46.266;20.062;2023-06-14T01:58:56;11.60;;;7.60;;
1759;SDS011;877;46.266;20.062;2023-06-14T02:04:21;9.00;;;6.00;;
1759;SDS011;877;46.266;20.062;2023-06-14T02:06:51;8.00;;;6.20;;
1759;SDS011;877;46.266;20.062;2023-06-14T02:12:06;12.97;;;6.47;;
1759;SDS011;877;46.266;20.062;2023-06-14T02:14:44;12.07;;;6.03;;
1759;SDS011;877;46.266;20.062;2023-06-14T02:17:14;9.90;;;6.60;;
1759;SDS011;877;46.266;20.062;2023-06-14T02:19:46;12.83;;;7.27;;
1759;SDS011;877;46.266;20.062;2023-06-14T02:22:18;10.70;;;7.13;;
1759;SDS011;877;46.266;20.062;2023-06-14T02:24:45;12.73;;;8.60;;
1759;SDS011;877;46.266;20.062;2023-06-14T02:27:26;8.30;;;6.20;;
1759;SDS011;877;46.266;20.062;2023-06-14T02:29:54;8.57;;;5.80;;
1759;SDS011;877;46.266;20.062;2023-06-14T02:32:19;11.37;;;6.90;;
1759;SDS011;877;46.266;20.062;2023-06-14T02:34:47;12.70;;;6.23;;
1759;SDS011;877;46.266;20.062;2023-06-14T02:43:51;8.80;;;6.40;;
1759;SDS011;877;46.266;20.062;2023-06-14T02:46:28;7.60;;;5.63;;
1759;SDS011;877;46.266;20.062;2023-06-14T02:49:04;11.13;;;6.60;;
1759;SDS011;877;46.266;20.062;2023-06-14T02:54:17;9.77;;;6.10;;
1759;SDS011;877;46.266;20.062;2023-06-14T03:05:15;9.73;;;6.70;;
1759;SDS011;877;46.266;20.062;2023-06-14T03:07:44;8.50;;;6.00;;
1759;SDS011;877;46.266;20.062;2023-06-14T03:13:32;14.03;;;7.23;;
1759;SDS011;877;46.266;20.062;2023-06-14T03:16:10;10.00;;;5.80;;
1759;SDS011;877;46.266;20.062;2023-06-14T03:18:39;10.43;;;6.10;;
1759;SDS011;877;46.266;20.062;2023-06-14T03:21:05;9.80;;;6.73;;
1759;SDS011;877;46.266;20.062;2023-06-14T03:23:34;8.77;;;5.87;;
1759;SDS011;877;46.266;20.062;2023-06-14T03:25:59;11.70;;;7.80;;
1759;SDS011;877;46.266;20.062;2023-06-14T03:28:25;11.90;;;7.93;;
1759;SDS011;877;46.266;20.062;2023-06-14T03:30:51;12.20;;;8.13;;
1759;SDS011;877;46.266;20.062;2023-06-14T03:33:17;13.23;;;8.27;;
1759;SDS011;877;46.266;20.062;2023-06-14T03:35:44;12.23;;;8.10;;
1759;SDS011;877;46.266;20.062;2023-06-14T03:38:28;12.23;;;8.43;;
1759;SDS011;877;46.266;20.062;2023-06-14T03:40:54;10.20;;;7.20;;
1759;SDS011;877;46.266;20.062;2023-06-14T03:43:20;13.90;;;9.07;;
1759;SDS011;877;46.266;20.062;2023-06-14T03:48:24;15.40;;;7.97;;
1759;SDS011;877;46.266;20.062;2023-06-14T03:50:53;13.50;;;8.70;;
1759;SDS011;877;46.266;20.062;2023-06-14T03:53:25;15.03;;;9.00;;
1759;SDS011;877;46.266;20.062;2023-06-14T04:07:14;13.23;;;7.90;;
1759;SDS011;877;46.266;20.062;2023-06-14T04:09:46;16.10;;;8.90;;
1759;SDS011;877;46.266;20.062;2023-06-14T04:12:26;19.70;;;9.70;;
1759;SDS011;877;46.266;20.062;2023-06-14T04:14:56;17.90;;;8.43;;
1759;SDS011;877;46.266;20.062;2023-06-14T04:22:30;18.77;;;9.30;;
1759;SDS011;877;46.266;20.062;2023-06-14T04:24:58;15.90;;;7.70;;
1759;SDS011;877;46.266;20.062;2023-06-14T04:27:32;15.07;;;8.23;;
1759;SDS011;877;46.266;20.062;2023-06-14T04:30:16;13.90;;;8.87;;
1759;SDS011;877;46.266;20.062;2023-06-14T04:32:43;14.73;;;8.67;;
1759;SDS011;877;46.266;20.062;2023-06-14T04:38:03;14.37;;;9.27;;
1759;SDS011;877;46.266;20.062;2023-06-14T04:40:35;15.00;;;10.20;;
1759;SDS011;877;46.266;20.062;2023-06-14T04:43:09;13.80;;;9.03;;
1759;SDS011;877;46.266;20.062;2023-06-14T04:45:39;15.13;;;9.33;;
1759;SDS011;877;46.266;20.062;2023-06-14T04:48:06;16.80;;;9.30;;
1759;SDS011;877;46.266;20.062;2023-06-14T04:50:35;15.53;;;9.50;;
1759;SDS011;877;46.266;20.062;2023-06-14T04:53:01;15.50;;;9.10;;
1759;SDS011;877;46.266;20.062;2023-06-14T04:55:28;15.93;;;10.37;;
1759;SDS011;877;46.266;20.062;2023-06-14T04:57:59;15.03;;;9.83;;
1759;SDS011;877;46.266;20.062;2023-06-14T05:00:31;11.83;;;8.73;;
1759;SDS011;877;46.266;20.062;2023-06-14T05:02:57;16.50;;;9.60;;
1759;SDS011;877;46.266;20.062;2023-06-14T05:05:25;16.43;;;9.43;;
1759;SDS011;877;46.266;20.062;2023-06-14T05:07:52;16.90;;;8.83;;
1759;SDS011;877;46.266;20.062;2023-06-14T05:10:19;11.07;;;7.83;;
1759;SDS011;877;46.266;20.062;2023-06-14T05:12:49;13.70;;;9.03;;
1759;SDS011;877;46.266;20.062;2023-06-14T05:15:16;10.87;;;7.30;;
1759;SDS011;877;46.266;20.062;2023-06-14T05:20:26;17.10;;;7.83;;
1759;SDS011;877;46.266;20.062;2023-06-14T05:22:59;14.67;;;7.60;;
1759;SDS011;877;46.266;20.062;2023-06-14T05:25:25;15.37;;;7.97;;
1759;SDS011;877;46.266;20.062;2023-06-14T05:27:54;16.13;;;8.77;;
1759;SDS011;877;46.266;20.062;2023-06-14T05:30:22;11.17;;;7.57;;
1759;SDS011;877;46.266;20.062;2023-06-14T05:32:51;12.50;;;7.80;;
1759;SDS011;877;46.266;20.062;2023-06-14T05:35:19;11.60;;;7.60;;
1759;SDS011;877;46.266;20.062;2023-06-14T05:37:45;11.27;;;7.57;;
1759;SDS011;877;46.266;20.062;2023-06-14T05:40:13;12.00;;;7.33;;
1759;SDS011;877;46.266;20.062;2023-06-14T05:42:45;12.00;;;7.47;;
1759;SDS011;877;46.266;20.062;2023-06-14T05:45:11;10.77;;;7.13;;
1759;SDS011;877;46.266;20.062;2023-06-14T05:47:38;11.37;;;7.77;;
1759;SDS011;877;46.266;20.062;2023-06-14T05:50:04;11.20;;;7.97;;
1759;SDS011;877;46.266;20.062;2023-06-14T05:52:31;12.20;;;6.60;;
1759;SDS011;877;46.266;20.062;2023-06-14T05:54:57;10.70;;;7.53;;
1759;SDS011;877;46.266;20.062;2023-06-14T05:57:25;14.17;;;7.50;;
1759;SDS011;877;46.266;20.062;2023-06-14T05:59:51;12.40;;;6.90;;
1759;SDS011;877;46.266;20.062;2023-06-14T06:02:16;15.30;;;8.23;;
1759;SDS011;877;46.266;20.062;2023-06-14T06:04:42;11.80;;;7.90;;
1759;SDS011;877;46.266;20.062;2023-06-14T06:07:08;11.10;;;7.80;;
1759;SDS011;877;46.266;20.062;2023-06-14T06:09:35;12.70;;;6.90;;
1759;SDS011;877;46.266;20.062;2023-06-14T06:12:08;14.50;;;8.10;;
1759;SDS011;877;46.266;20.062;2023-06-14T06:14:36;11.27;;;7.10;;
1759;SDS011;877;46.266;20.062;2023-06-14T06:17:03;13.00;;;7.70;;
1759;SDS011;877;46.266;20.062;2023-06-14T06:19:36;12.03;;;7.77;;
1759;SDS011;877;46.266;20.062;2023-06-14T06:22:19;14.20;;;7.80;;
1759;SDS011;877;46.266;20.062;2023-06-14T06:24:46;20.90;;;8.90;;
1759;SDS011;877;46.266;20.062;2023-06-14T06:29:49;11.40;;;7.10;;
1759;SDS011;877;46.266;20.062;2023-06-14T06:32:16;11.80;;;7.30;;
1759;SDS011;877;46.266;20.062;2023-06-14T06:34:41;13.50;;;6.83;;
1759;SDS011;877;46.266;20.062;2023-06-14T06:39:58;13.83;;;6.40;;
1759;SDS011;877;46.266;20.062;2023-06-14T06:42:24;12.83;;;6.20;;
1759;SDS011;877;46.266;20.062;2023-06-14T06:45:01;13.60;;;6.77;;
1759;SDS011;877;46.266;20.062;2023-06-14T06:47:28;10.77;;;7.00;;
1759;SDS011;877;46.266;20.062;2023-06-14T06:49:53;9.33;;;5.60;;
1759;SDS011;877;46.266;20.062;2023-06-14T06:54:49;13.30;;;5.63;;
1759;SDS011;877;46.266;20.062;2023-06-14T06:57:22;9.70;;;6.17;;
1759;SDS011;877;46.266;20.062;2023-06-14T06:59:50;10.13;;;6.93;;
1759;SDS011;877;46.266;20.062;2023-06-14T07:02:16;10.40;;;6.80;;
1759;SDS011;877;46.266;20.062;2023-06-14T07:04:45;11.90;;;6.37;;
1759;SDS011;877;46.266;20.062;2023-06-14T07:07:10;11.67;;;5.30;;
1759;SDS011;877;46.266;20.062;2023-06-14T07:09:37;9.27;;;6.47;;
1759;SDS011;877;46.266;20.062;2023-06-14T07:12:03;9.37;;;5.07;;
1759;SDS011;877;46.266;20.062;2023-06-14T07:14:29;6.23;;;4.70;;
1759;SDS011;877;46.266;20.062;2023-06-14T07:16:59;12.67;;;6.60;;
1759;SDS011;877;46.266;20.062;2023-06-14T07:19:27;11.57;;;9.10;;
1759;SDS011;877;46.266;20.062;2023-06-14T07:21:54;8.50;;;4.67;;
1759;SDS011;877;46.266;20.062;2023-06-14T07:24:28;6.77;;;5.30;;
1759;SDS011;877;46.266;20.062;2023-06-14T07:27:02;6.47;;;4.80;;
1759;SDS011;877;46.266;20.062;2023-06-14T07:29:31;7.47;;;5.30;;
1759;SDS011;877;46.266;20.062;2023-06-14T07:32:03;10.10;;;5.50;;
1759;SDS011;877;46.266;20.062;2023-06-14T07:34:40;11.00;;;5.20;;
1759;SDS011;877;46.266;20.062;2023-06-14T07:37:07;7.27;;;4.60;;
1759;SDS011;877;46.266;20.062;2023-06-14T07:39:38;7.30;;;4.20;;
1759;SDS011;877;46.266;20.062;2023-06-14T07:42:04;10.40;;;5.40;;
1759;SDS011;877;46.266;20.062;2023-06-14T07:44:32;9.27;;;5.07;;
1759;SDS011;877;46.266;20.062;2023-06-14T07:47:01;8.23;;;4.30;;
1759;SDS011;877;46.266;20.062;2023-06-14T07:49:31;7.60;;;5.10;;
1759;SDS011;877;46.266;20.062;2023-06-14T07:51:57;8.23;;;4.43;;
1759;SDS011;877;46.266;20.062;2023-06-14T07:54:24;9.40;;;4.47;;
1759;SDS011;877;46.266;20.062;2023-06-14T07:56:52;6.23;;;4.53;;
1759;SDS011;877;46.266;20.062;2023-06-14T07:59:31;4.73;;;3.27;;
1759;SDS011;877;46.266;20.062;2023-06-14T08:01:57;4.57;;;3.70;;
1759;SDS011;877;46.266;20.062;2023-06-14T08:04:40;5.77;;;3.93;;
1759;SDS011;877;46.266;20.062;2023-06-14T08:07:15;7.47;;;4.20;;
1759;SDS011;877;46.266;20.062;2023-06-14T08:09:41;4.83;;;3.53;;
1759;SDS011;877;46.266;20.062;2023-06-14T08:12:08;8.07;;;3.60;;
1759;SDS011;877;46.266;20.062;2023-06-14T08:17:18;11.50;;;3.57;;
1759;SDS011;877;46.266;20.062;2023-06-14T08:19:45;5.53;;;3.00;;
1759;SDS011;877;46.266;20.062;2023-06-14T08:22:12;3.90;;;2.97;;
1759;SDS011;877;46.266;20.062;2023-06-14T08:27:10;3.67;;;2.47;;
1759;SDS011;877;46.266;20.062;2023-06-14T08:29:42;3.33;;;2.07;;
1759;SDS011;877;46.266;20.062;2023-06-14T08:35:06;3.10;;;1.90;;
1759;SDS011;877;46.266;20.062;2023-06-14T08:37:41;2.70;;;2.00;;
1759;SDS011;877;46.266;20.062;2023-06-14T08:48:00;5.27;;;2.80;;
1759;SDS011;877;46.266;20.062;2023-06-14T08:50:41;3.20;;;2.00;;
1759;SDS011;877;46.266;20.062;2023-06-14T08:53:08;4.07;;;2.50;;
1759;SDS011;877;46.266;20.062;2023-06-14T09:01:10;4.80;;;2.50;;
1759;SDS011;877;46.266;20.062;2023-06-14T09:06:14;4.00;;;3.40;;
1759;SDS011;877;46.266;20.062;2023-06-14T09:11:27;5.10;;;3.07;;
1759;SDS011;877;46.266;20.062;2023-06-14T09:21:03;4.10;;;2.47;;
1759;SDS011;877;46.266;20.062;2023-06-14T09:23:33;3.40;;;2.20;;
1759;SDS011;877;46.266;20.062;2023-06-14T09:26:07;4.43;;;2.90;;
1759;SDS011;877;46.266;20.062;2023-06-14T09:28:42;3.57;;;2.53;;
1759;SDS011;877;46.266;20.062;2023-06-14T09:31:12;3.97;;;2.57;;
1759;SDS011;877;46.266;20.062;2023-06-14T09:33:51;8.27;;;2.60;;
1759;SDS011;877;46.266;20.062;2023-06-14T09:36:18;4.30;;;2.40;;
1759;SDS011;877;46.266;20.062;2023-06-14T09:39:02;3.90;;;2.33;;
1759;SDS011;877;46.266;20.062;2023-06-14T09:41:36;4.10;;;2.27;;
1759;SDS011;877;46.266;20.062;2023-06-14T09:44:05;4.00;;;2.40;;
1759;SDS011;877;46.266;20.062;2023-06-14T09:46:37;5.10;;;2.10;;
1759;SDS011;877;46.266;20.062;2023-06-14T09:49:19;3.93;;;2.40;;
1759;SDS011;877;46.266;20.062;2023-06-14T09:51:46;6.60;;;2.50;;
1759;SDS011;877;46.266;20.062;2023-06-14T09:54:19;4.37;;;2.60;;
1759;SDS011;877;46.266;20.062;2023-06-14T10:00:14;6.57;;;2.43;;
1759;SDS011;877;46.266;20.062;2023-06-14T10:02:49;5.00;;;3.13;;
1759;SDS011;877;46.266;20.062;2023-06-14T10:08:04;5.53;;;2.50;;
1759;SDS011;877;46.266;20.062;2023-06-14T10:13:39;3.60;;;2.50;;
1759;SDS011;877;46.266;20.062;2023-06-14T10:30:27;5.20;;;2.70;;
1759;SDS011;877;46.266;20.062;2023-06-14T10:38:36;3.53;;;2.50;;
1759;SDS011;877;46.266;20.062;2023-06-14T10:53:39;5.23;;;2.27;;
1759;SDS011;877;46.266;20.062;2023-06-14T10:56:12;3.20;;;2.60;;
1759;SDS011;877;46.266;20.062;2023-06-14T11:08:50;3.57;;;2.53;;
1759;SDS011;877;46.266;20.062;2023-06-14T11:11:43;4.23;;;2.63;;
1759;SDS011;877;46.266;20.062;2023-06-14T11:19:49;4.67;;;2.80;;
1759;SDS011;877;46.266;20.062;2023-06-14T11:22:29;3.97;;;3.00;;
1759;SDS011;877;46.266;20.062;2023-06-14T11:31:21;3.83;;;2.50;;
1759;SDS011;877;46.266;20.062;2023-06-14T11:33:50;5.63;;;2.70;;
1759;SDS011;877;46.266;20.062;2023-06-14T11:41:54;4.37;;;3.13;;
1759;SDS011;877;46.266;20.062;2023-06-14T11:44:35;5.77;;;2.73;;
1759;SDS011;877;46.266;20.062;2023-06-14T11:50:07;4.00;;;2.57;;
1759;SDS011;877;46.266;20.062;2023-06-14T11:55:45;4.67;;;3.50;;
1759;SDS011;877;46.266;20.062;2023-06-14T11:58:18;3.70;;;2.70;;
1759;SDS011;877;46.266;20.062;2023-06-14T12:00:52;5.23;;;2.70;;
1759;SDS011;877;46.266;20.062;2023-06-14T12:03:34;5.03;;;3.50;;
1759;SDS011;877;46.266;20.062;2023-06-14T12:13:29;3.63;;;2.90;;
1759;SDS011;877;46.266;20.062;2023-06-14T12:15:59;5.33;;;2.90;;
1759;SDS011;877;46.266;20.062;2023-06-14T12:18:32;6.10;;;2.63;;
1759;SDS011;877;46.266;20.062;2023-06-14T12:21:13;4.20;;;3.10;;
1759;SDS011;877;46.266;20.062;2023-06-14T12:23:48;4.27;;;3.30;;
1759;SDS011;877;46.266;20.062;2023-06-14T12:26:29;5.57;;;3.30;;
1759;SDS011;877;46.266;20.062;2023-06-14T12:35:14;6.80;;;2.53;;
1759;SDS011;877;46.266;20.062;2023-06-14T12:43:41;4.00;;;2.87;;
1759;SDS011;877;46.266;20.062;2023-06-14T12:49:29;4.70;;;3.17;;
1759;SDS011;877;46.266;20.062;2023-06-14T12:54:41;4.10;;;2.97;;
1759;SDS011;877;46.266;20.062;2023-06-14T12:57:23;4.40;;;3.10;;
1759;SDS011;877;46.266;20.062;2023-06-14T13:02:39;5.87;;;3.20;;
1759;SDS011;877;46.266;20.062;2023-06-14T13:07:39;8.43;;;6.13;;
1759;SDS011;877;46.266;20.062;2023-06-14T13:12:43;4.80;;;3.20;;
1759;SDS011;877;46.266;20.062;2023-06-14T13:15:19;4.50;;;2.97;;
1759;SDS011;877;46.266;20.062;2023-06-14T13:23:30;5.37;;;3.33;;
1759;SDS011;877;46.266;20.062;2023-06-14T13:29:31;6.50;;;2.73;;
1759;SDS011;877;46.266;20.062;2023-06-14T13:34:44;5.50;;;2.70;;
1759;SDS011;877;46.266;20.062;2023-06-14T13:40:51;5.10;;;3.00;;
1759;SDS011;877;46.266;20.062;2023-06-14T13:46:03;5.00;;;3.20;;
1759;SDS011;877;46.266;20.062;2023-06-14T13:48:38;4.57;;;2.70;;
1759;SDS011;877;46.266;20.062;2023-06-14T13:51:05;6.60;;;3.03;;
1759;SDS011;877;46.266;20.062;2023-06-14T13:53:32;3.60;;;2.70;;
1759;SDS011;877;46.266;20.062;2023-06-14T13:58:56;4.70;;;3.73;;
1759;SDS011;877;46.266;20.062;2023-06-14T14:01:31;4.13;;;3.07;;
1759;SDS011;877;46.266;20.062;2023-06-14T14:04:03;4.60;;;2.93;;
1759;SDS011;877;46.266;20.062;2023-06-14T14:06:35;5.40;;;3.00;;
1759;SDS011;877;46.266;20.062;2023-06-14T14:09:15;4.50;;;2.77;;
1759;SDS011;877;46.266;20.062;2023-06-14T14:11:48;7.83;;;3.00;;
1759;SDS011;877;46.266;20.062;2023-06-14T14:17:12;4.40;;;3.17;;
1759;SDS011;877;46.266;20.062;2023-06-14T14:19:50;5.53;;;3.27;;
1759;SDS011;877;46.266;20.062;2023-06-14T14:28:46;5.57;;;3.10;;
1759;SDS011;877;46.266;20.062;2023-06-14T14:31:28;7.57;;;3.90;;
1759;SDS011;877;46.266;20.062;2023-06-14T14:41:58;5.40;;;2.80;;
1759;SDS011;877;46.266;20.062;2023-06-14T14:49:55;7.70;;;3.30;;
1759;SDS011;877;46.266;20.062;2023-06-14T14:55:41;5.20;;;3.10;;
1759;SDS011;877;46.266;20.062;2023-06-14T15:03:33;4.20;;;2.90;;
1759;SDS011;877;46.266;20.062;2023-06-14T15:09:28;7.77;;;4.00;;
1759;SDS011;877;46.266;20.062;2023-06-14T15:11:55;4.97;;;3.20;;
1759;SDS011;877;46.266;20.062;2023-06-14T15:14:31;7.83;;;2.90;;
1759;SDS011;877;46.266;20.062;2023-06-14T15:19:35;3.70;;;2.80;;
1759;SDS011;877;46.266;20.062;2023-06-14T15:22:01;8.17;;;3.50;;
1759;SDS011;877;46.266;20.062;2023-06-14T15:24:28;4.60;;;3.33;;
1759;SDS011;877;46.266;20.062;2023-06-14T15:27:06;5.33;;;3.13;;
1759;SDS011;877;46.266;20.062;2023-06-14T15:29:40;6.97;;;3.20;;
1759;SDS011;877;46.266;20.062;2023-06-14T15:32:13;5.93;;;3.57;;
1759;SDS011;877;46.266;20.062;2023-06-14T15:34:47;4.40;;;2.73;;
1759;SDS011;877;46.266;20.062;2023-06-14T15:37:16;7.27;;;3.00;;
1759;SDS011;877;46.266;20.062;2023-06-14T15:39:47;4.50;;;3.30;;
1759;SDS011;877;46.266;20.062;2023-06-14T15:42:13;3.73;;;2.90;;
1759;SDS011;877;46.266;20.062;2023-06-14T15:44:40;5.03;;;3.40;;
1759;SDS011;877;46.266;20.062;2023-06-14T15:47:07;3.97;;;2.80;;
1759;SDS011;877;46.266;20.062;2023-06-14T15:49:33;4.57;;;2.73;;
1759;SDS011;877;46.266;20.062;2023-06-14T15:52:04;4.23;;;2.80;;
1759;SDS011;877;46.266;20.062;2023-06-14T15:54:37;3.90;;;2.87;;
1759;SDS011;877;46.266;20.062;2023-06-14T15:57:03;4.70;;;2.77;;
1759;SDS011;877;46.266;20.062;2023-06-14T15:59:30;6.47;;;3.20;;
1759;SDS011;877;46.266;20.062;2023-06-14T16:07:05;7.63;;;3.67;;
1759;SDS011;877;46.266;20.062;2023-06-14T16:09:35;4.70;;;2.93;;
1759;SDS011;877;46.266;20.062;2023-06-14T16:12:01;3.73;;;2.80;;
1759;SDS011;877;46.266;20.062;2023-06-14T16:14:28;7.33;;;3.07;;
1759;SDS011;877;46.266;20.062;2023-06-14T16:16:55;5.10;;;3.43;;
1759;SDS011;877;46.266;20.062;2023-06-14T16:19:22;3.63;;;2.57;;
1759;SDS011;877;46.266;20.062;2023-06-14T16:21:52;4.63;;;3.00;;
1759;SDS011;877;46.266;20.062;2023-06-14T16:24:25;3.70;;;2.50;;
1759;SDS011;877;46.266;20.062;2023-06-14T16:26:57;6.80;;;3.07;;
1759;SDS011;877;46.266;20.062;2023-06-14T16:29:23;3.57;;;2.70;;
1759;SDS011;877;46.266;20.062;2023-06-14T16:34:29;5.87;;;3.27;;
1759;SDS011;877;46.266;20.062;2023-06-14T16:37:16;5.20;;;3.33;;
1759;SDS011;877;46.266;20.062;2023-06-14T16:39:42;4.33;;;2.57;;
1759;SDS011;877;46.266;20.062;2023-06-14T16:42:20;7.33;;;3.00;;
1759;SDS011;877;46.266;20.062;2023-06-14T16:44:47;3.73;;;3.03;;
1759;SDS011;877;46.266;20.062;2023-06-14T16:47:13;5.70;;;3.03;;
1759;SDS011;877;46.266;20.062;2023-06-14T16:49:40;4.10;;;2.80;;
1759;SDS011;877;46.266;20.062;2023-06-14T16:52:08;6.10;;;3.17;;
1759;SDS011;877;46.266;20.062;2023-06-14T16:54:34;4.30;;;3.10;;
1759;SDS011;877;46.266;20.062;2023-06-14T16:56:59;4.20;;;2.97;;
1759;SDS011;877;46.266;20.062;2023-06-14T16:59:26;5.20;;;3.47;;
1759;SDS011;877;46.266;20.062;2023-06-14T17:01:52;4.77;;;3.33;;
1759;SDS011;877;46.266;20.062;2023-06-14T17:04:18;7.30;;;3.53;;
1759;SDS011;877;46.266;20.062;2023-06-14T17:06:50;4.37;;;3.20;;
1759;SDS011;877;46.266;20.062;2023-06-14T17:09:19;3.70;;;2.90;;
1759;SDS011;877;46.266;20.062;2023-06-14T17:11:46;5.50;;;3.20;;
1759;SDS011;877;46.266;20.062;2023-06-14T17:14:12;4.30;;;3.10;;
1759;SDS011;877;46.266;20.062;2023-06-14T17:16:38;5.20;;;3.30;;
1759;SDS011;877;46.266;20.062;2023-06-14T17:19:10;4.60;;;3.30;;
1759;SDS011;877;46.266;20.062;2023-06-14T17:24:22;6.10;;;2.90;;
1759;SDS011;877;46.266;20.062;2023-06-14T17:27:03;4.60;;;3.20;;
1759;SDS011;877;46.266;20.062;2023-06-14T17:29:37;5.50;;;2.93;;
1759;SDS011;877;46.266;20.062;2023-06-14T17:32:04;5.10;;;3.03;;
1759;SDS011;877;46.266;20.062;2023-06-14T17:34:37;5.47;;;3.30;;
1759;SDS011;877;46.266;20.062;2023-06-14T17:37:04;5.80;;;3.63;;
1759;SDS011;877;46.266;20.062;2023-06-14T17:39:36;6.00;;;3.50;;
1759;SDS011;877;46.266;20.062;2023-06-14T17:45:25;4.20;;;2.70;;
1759;SDS011;877;46.266;20.062;2023-06-14T17:48:09;21.20;;;18.73;;
1759;SDS011;877;46.266;20.062;2023-06-14T17:50:48;4.10;;;3.10;;
1759;SDS011;877;46.266;20.062;2023-06-14T17:59:40;5.30;;;3.60;;
1759;SDS011;877;46.266;20.062;2023-06-14T18:05:32;4.57;;;3.00;;
1759;SDS011;877;46.266;20.062;2023-06-14T18:07:59;5.30;;;3.73;;
1759;SDS011;877;46.266;20.062;2023-06-14T18:13:46;9.10;;;3.40;;
1759;SDS011;877;46.266;20.062;2023-06-14T18:19:00;7.03;;;3.53;;
1759;SDS011;877;46.266;20.062;2023-06-14T18:21:37;6.07;;;3.50;;
1759;SDS011;877;46.266;20.062;2023-06-14T18:24:05;6.80;;;3.00;;
1759;SDS011;877;46.266;20.062;2023-06-14T18:31:41;4.90;;;3.70;;
1759;SDS011;877;46.266;20.062;2023-06-14T18:39:55;4.47;;;3.53;;
1759;SDS011;877;46.266;20.062;2023-06-14T18:42:28;4.43;;;2.83;;
1759;SDS011;877;46.266;20.062;2023-06-14T18:44:54;6.60;;;3.87;;
1759;SDS011;877;46.266;20.062;2023-06-14T18:47:22;5.53;;;3.70;;
1759;SDS011;877;46.266;20.062;2023-06-14T18:49:55;5.87;;;3.70;;
1759;SDS011;877;46.266;20.062;2023-06-14T18:55:43;4.53;;;3.53;;
1759;SDS011;877;46.266;20.062;2023-06-14T18:58:16;7.17;;;4.13;;
1759;SDS011;877;46.266;20.062;2023-06-14T19:00:44;4.50;;;3.53;;
1759;SDS011;877;46.266;20.062;2023-06-14T19:03:29;6.97;;;4.10;;
1759;SDS011;877;46.266;20.062;2023-06-14T19:06:03;7.37;;;3.80;;
1759;SDS011;877;46.266;20.062;2023-06-14T19:08:31;9.30;;;4.40;;
1759;SDS011;877;46.266;20.062;2023-06-14T19:10:59;8.63;;;3.80;;
1759;SDS011;877;46.266;20.062;2023-06-14T19:16:53;6.67;;;3.60;;
1759;SDS011;877;46.266;20.062;2023-06-14T19:25:13;7.53;;;4.70;;
1759;SDS011;877;46.266;20.062;2023-06-14T19:39:38;7.80;;;3.80;;
1759;SDS011;877;46.266;20.062;2023-06-14T19:42:04;6.00;;;3.77;;
1759;SDS011;877;46.266;20.062;2023-06-14T19:50:32;5.40;;;3.73;;
1759;SDS011;877;46.266;20.062;2023-06-14T19:55:55;6.17;;;3.70;;
1759;SDS011;877;46.266;20.062;2023-06-14T20:01:23;10.47;;;3.90;;
1759;SDS011;877;46.266;20.062;2023-06-14T20:18:21;7.93;;;4.10;;
1759;SDS011;877;46.266;20.062;2023-06-14T20:20:55;6.60;;;4.00;;
1759;SDS011;877;46.266;20.062;2023-06-14T20:23:23;8.90;;;4.10;;
1759;SDS011;877;46.266;20.062;2023-06-14T20:29:24;10.00;;;4.20;;
1759;SDS011;877;46.266;20.062;2023-06-14T20:31:51;6.77;;;4.20;;
1759;SDS011;877;46.266;20.062;2023-06-14T20:41:02;6.50;;;4.60;;
1759;SDS011;877;46.266;20.062;2023-06-14T20:47:01;6.00;;;4.47;;
1759;SDS011;877;46.266;20.062;2023-06-14T20:49:28;5.20;;;3.60;;
1759;SDS011;877;46.266;20.062;2023-06-14T20:51:56;8.07;;;4.60;;
1759;SDS011;877;46.266;20.062;2023-06-14T20:54:23;7.40;;;4.67;;
1759;SDS011;877;46.266;20.062;2023-06-14T21:05:10;6.10;;;4.07;;
1759;SDS011;877;46.266;20.062;2023-06-14T21:13:01;7.33;;;4.93;;
1759;SDS011;877;46.266;20.062;2023-06-14T21:15:40;7.57;;;4.83;;
1759;SDS011;877;46.266;20.062;2023-06-14T21:18:17;6.20;;;4.80;;
1759;SDS011;877;46.266;20.062;2023-06-14T21:20:52;8.40;;;4.77;;
1759;SDS011;877;46.266;20.062;2023-06-14T21:23:17;9.30;;;4.57;;
1759;SDS011;877;46.266;20.062;2023-06-14T21:49:26;12.30;;;7.00;;
1759;SDS011;877;46.266;20.062;2023-06-14T21:51:53;9.90;;;4.90;;
1759;SDS011;877;46.266;20.062;2023-06-14T21:54:31;6.73;;;5.13;;
1759;SDS011;877;46.266;20.062;2023-06-14T22:09:47;6.43;;;4.50;;
1759;SDS011;877;46.266;20.062;2023-06-14T22:12:15;10.17;;;5.30;;
1759;SDS011;877;46.266;20.062;2023-06-14T22:21:29;10.70;;;6.83;;
1759;SDS011;877;46.266;20.062;2023-06-14T22:35:51;13.20;;;6.40;;
1759;SDS011;877;46.266;20.062;2023-06-14T22:44:07;10.10;;;5.90;;
1759;SDS011;877;46.266;20.062;2023-06-14T22:46:34;13.60;;;6.63;;
1759;SDS011;877;46.266;20.062;2023-06-14T23:12:56;9.57;;;5.50;;
1759;SDS011;877;46.266;20.062;2023-06-14T23:15:32;8.90;;;6.80;;
1759;SDS011;877;46.266;20.062;2023-06-14T23:26:28;10.20;;;6.30;;
1759;SDS011;877;46.266;20.062;2023-06-14T23:29:05;9.23;;;6.00;;
1759;SDS011;877;46.266;20.062;2023-06-14T23:31:40;8.83;;;6.00;;
1759;SDS011;877;46.266;20.062;2023-06-14T23:36:54;10.93;;;6.57;;
1759;SDS011;877;46.266;20.062;2023-06-14T23:39:29;8.00;;;6.00;;
1759;SDS011;877;46.266;20.062;2023-06-14T23:51:33;12.67;;;6.33;;
1759;SDS011;877;46.266;20.062;2023-06-14T23:56:31;7.83;;;5.80;;
1759;SDS011;877;46.266;20.062;2023-06-14T23:59:11;10.03;;;5.40;;
